Clinton Municipal Airport

About
Name: Clinton Municipal Airport
Identifier:  CWI/KCWI
Local Time:  22. Aug 10:21 CDT
Location
Flights per Day
0 flights
Distance: 203km (126mi)
Punctuality
0% (0 flights per day delayed)
Delay Average: 34 minutes
Current Weather
 22 C (Humidity: 64%)
  6kt (11km/h / 6mph) from 50°
  16km (10 mi.)
 
 METAR KCWI 221456Z AUTO 05006KT 10SM CLR 22/15 A3005 RMK AO2 SLP177 T02170150 52007

Current Flights

Departures
Number Departure To Airline
Arrivals
Number Arrival From Airline

Current Delays

Departures
N/A
Arrivals
N/A

Destinations

Top Destinations
Airport Flights
per week
Seats
per week
  Dubuque (DBQ) 0 - 0 0
  Minneapolis (FCM) 0 - 0 0
  Wausau (CWA) 0 - 0 0
  Cedar Rapids (CID) 0 - 0 0
  Fargo (FAR) 0 - 0 0
  Findlay (FDY) 0 - 0 0
  Lincoln (LNK) 0 - 0 0
  Pellston (PLN) 0 - 0 0
  Madison (MSN) 0 - 0 0
  Perry (PRO) 0 - 0 0

Airlines & Planes

Top Airlines
Airline Flights
per Day
Seats
per Day
  National Airlines 0 -
  Nolinor Aviation 0 -
  Flybe Nordic 0 -
Travel Management Company 0 -
Top Plane Types
Model Flights Seats
Cirrus SR22 0.2/day - 0
Cessna C172 0.1/day - 0
Rockwell Commander 112 0.0/day - 0
Hawker Beechcraft 400XP 0.0/day - 0